sensor_id;sensor_type;location;lat;lon;timestamp;pressure;altitude;pressure_sealevel;temperature;humidity
49835;BME280;35729;52.090;13.162;2023-01-15T00:01:03;99297.53;;;7.15;99.62
49835;BME280;35729;52.090;13.162;2023-01-15T00:03:32;99300.97;;;7.16;99.34
49835;BME280;35729;52.090;13.162;2023-01-15T00:06:01;99294.91;;;7.15;99.38
49835;BME280;35729;52.090;13.162;2023-01-15T00:08:32;99293.97;;;7.18;98.63
49835;BME280;35729;52.090;13.162;2023-01-15T00:11:02;99285.19;;;7.21;98.97
49835;BME280;35729;52.090;13.162;2023-01-15T00:13:30;99301.69;;;7.21;99.23
49835;BME280;35729;52.090;13.162;2023-01-15T00:16:02;99282.41;;;7.25;99.13
49835;BME280;35729;52.090;13.162;2023-01-15T00:18:31;99279.81;;;7.25;98.90
49835;BME280;35729;52.090;13.162;2023-01-15T00:21:00;99281.47;;;7.28;98.32
49835;BME280;35729;52.090;13.162;2023-01-15T00:23:28;99274.41;;;7.31;98.02
49835;BME280;35729;52.090;13.162;2023-01-15T00:26:13;99276.13;;;7.32;98.33
49835;BME280;35729;52.090;13.162;2023-01-15T00:28:56;99262.06;;;7.37;98.14
49835;BME280;35729;52.090;13.162;2023-01-15T00:31:25;99236.78;;;7.39;97.33
49835;BME280;35729;52.090;13.162;2023-01-15T00:33:54;99253.25;;;7.41;97.91
49835;BME280;35729;52.090;13.162;2023-01-15T00:36:23;99250.66;;;7.39;97.49
49835;BME280;35729;52.090;13.162;2023-01-15T00:38:58;99246.13;;;7.46;97.84
49835;BME280;35729;52.090;13.162;2023-01-15T00:41:35;99242.63;;;7.47;96.42
49835;BME280;35729;52.090;13.162;2023-01-15T00:44:04;99242.50;;;7.50;97.23
49835;BME280;35729;52.090;13.162;2023-01-15T00:46:32;99230.34;;;7.49;97.32
49835;BME280;35729;52.090;13.162;2023-01-15T00:49:02;99230.25;;;7.52;97.36
49835;BME280;35729;52.090;13.162;2023-01-15T00:51:31;99228.34;;;7.57;97.27
49835;BME280;35729;52.090;13.162;2023-01-15T00:53:59;99234.31;;;7.61;97.29
49835;BME280;35729;52.090;13.162;2023-01-15T00:56:28;99218.66;;;7.61;96.92
49835;BME280;35729;52.090;13.162;2023-01-15T00:59:00;99211.63;;;7.63;97.11
49835;BME280;35729;52.090;13.162;2023-01-15T01:01:28;99198.50;;;7.64;96.66
49835;BME280;35729;52.090;13.162;2023-01-15T01:03:57;99195.88;;;7.66;96.64
49835;BME280;35729;52.090;13.162;2023-01-15T01:06:26;99193.19;;;7.68;96.07
49835;BME280;35729;52.090;13.162;2023-01-15T01:08:55;99191.44;;;7.68;96.28
49835;BME280;35729;52.090;13.162;2023-01-15T01:11:24;99198.28;;;7.71;96.35
49835;BME280;35729;52.090;13.162;2023-01-15T01:14:00;99190.47;;;7.71;95.54
49835;BME280;35729;52.090;13.162;2023-01-15T01:16:30;99204.25;;;7.74;96.06
49835;BME280;35729;52.090;13.162;2023-01-15T01:19:02;99207.69;;;7.76;95.38
49835;BME280;35729;52.090;13.162;2023-01-15T01:21:31;99217.16;;;7.79;96.00
49835;BME280;35729;52.090;13.162;2023-01-15T01:24:00;99219.66;;;7.82;95.11
49835;BME280;35729;52.090;13.162;2023-01-15T01:26:29;99213.53;;;7.83;95.12
49835;BME280;35729;52.090;13.162;2023-01-15T01:29:00;99212.50;;;7.87;95.89
49835;BME280;35729;52.090;13.162;2023-01-15T01:31:29;99204.59;;;7.90;95.96
49835;BME280;35729;52.090;13.162;2023-01-15T01:33:58;99200.22;;;7.91;95.78
49835;BME280;35729;52.090;13.162;2023-01-15T01:36:32;99211.47;;;7.93;95.51
49835;BME280;35729;52.090;13.162;2023-01-15T01:39:02;99202.66;;;7.95;95.88
49835;BME280;35729;52.090;13.162;2023-01-15T01:41:31;99196.59;;;7.95;95.77
49835;BME280;35729;52.090;13.162;2023-01-15T01:44:05;99207.06;;;7.95;96.42
49835;BME280;35729;52.090;13.162;2023-01-15T01:46:35;99205.34;;;7.94;96.29
49835;BME280;35729;52.090;13.162;2023-01-15T01:49:06;99207.13;;;7.92;97.32
49835;BME280;35729;52.090;13.162;2023-01-15T01:51:40;99203.78;;;7.88;97.23
49835;BME280;35729;52.090;13.162;2023-01-15T01:54:13;99200.41;;;7.85;97.94
49835;BME280;35729;52.090;13.162;2023-01-15T01:56:43;99200.53;;;7.81;98.23
49835;BME280;35729;52.090;13.162;2023-01-15T01:59:15;99198.03;;;7.78;98.83
49835;BME280;35729;52.090;13.162;2023-01-15T02:01:44;99189.47;;;7.75;98.87
49835;BME280;35729;52.090;13.162;2023-01-15T02:04:13;99188.72;;;7.71;99.58
49835;BME280;35729;52.090;13.162;2023-01-15T02:06:42;99182.69;;;7.69;99.71
49835;BME280;35729;52.090;13.162;2023-01-15T02:09:11;99185.38;;;7.68;99.65
49835;BME280;35729;52.090;13.162;2023-01-15T02:11:39;99183.72;;;7.65;100.00
49835;BME280;35729;52.090;13.162;2023-01-15T02:14:15;99183.72;;;7.65;100.00
49835;BME280;35729;52.090;13.162;2023-01-15T02:16:52;99182.91;;;7.63;100.00
49835;BME280;35729;52.090;13.162;2023-01-15T02:19:35;99181.16;;;7.63;100.00
49835;BME280;35729;52.090;13.162;2023-01-15T02:22:13;99184.66;;;7.62;100.00
49835;BME280;35729;52.090;13.162;2023-01-15T02:24:54;99187.28;;;7.62;100.00
49835;BME280;35729;52.090;13.162;2023-01-15T02:27:32;99185.56;;;7.61;100.00
49835;BME280;35729;52.090;13.162;2023-01-15T02:30:06;99171.69;;;7.61;100.00
49835;BME280;35729;52.090;13.162;2023-01-15T02:33:03;99159.47;;;7.61;100.00
49835;BME280;35729;52.090;13.162;2023-01-15T02:35:35;99160.31;;;7.62;100.00
49835;BME280;35729;52.090;13.162;2023-01-15T02:38:14;99155.16;;;7.60;100.00
49835;BME280;35729;52.090;13.162;2023-01-15T02:40:55;99174.28;;;7.61;100.00
49835;BME280;35729;52.090;13.162;2023-01-15T02:43:31;99168.19;;;7.60;100.00
49835;BME280;35729;52.090;13.162;2023-01-15T02:46:02;99148.22;;;7.59;100.00
49835;BME280;35729;52.090;13.162;2023-01-15T02:48:35;99154.31;;;7.60;100.00
49835;BME280;35729;52.090;13.162;2023-01-15T02:51:08;99159.53;;;7.60;100.00
49835;BME280;35729;52.090;13.162;2023-01-15T02:53:41;99143.94;;;7.58;100.00
49835;BME280;35729;52.090;13.162;2023-01-15T02:56:12;99148.22;;;7.59;100.00
49835;BME280;35729;52.090;13.162;2023-01-15T02:58:46;99147.31;;;7.60;100.00
49835;BME280;35729;52.090;13.162;2023-01-15T03:01:18;99129.06;;;7.60;100.00
49835;BME280;35729;52.090;13.162;2023-01-15T03:03:54;99129.91;;;7.61;100.00
49835;BME280;35729;52.090;13.162;2023-01-15T03:06:29;99135.97;;;7.61;100.00
49835;BME280;35729;52.090;13.162;2023-01-15T03:09:00;99131.66;;;7.60;100.00
49835;BME280;35729;52.090;13.162;2023-01-15T03:11:29;99131.66;;;7.60;100.00
49835;BME280;35729;52.090;13.162;2023-01-15T03:14:07;99137.69;;;7.62;100.00
49835;BME280;35729;52.090;13.162;2023-01-15T03:16:36;99134.19;;;7.63;100.00
49835;BME280;35729;52.090;13.162;2023-01-15T03:19:11;99125.53;;;7.61;100.00
49835;BME280;35729;52.090;13.162;2023-01-15T03:21:44;99130.63;;;7.64;100.00
49835;BME280;35729;52.090;13.162;2023-01-15T03:24:18;99128.91;;;7.65;100.00
49835;BME280;35729;52.090;13.162;2023-01-15T03:26:48;99124.50;;;7.65;100.00
49835;BME280;35729;52.090;13.162;2023-01-15T03:29:20;99122.78;;;7.66;100.00
49835;BME280;35729;52.090;13.162;2023-01-15T03:31:50;99119.34;;;7.64;100.00
49835;BME280;35729;52.090;13.162;2023-01-15T03:34:19;99125.38;;;7.66;100.00
49835;BME280;35729;52.090;13.162;2023-01-15T03:36:48;99130.53;;;7.68;100.00
49835;BME280;35729;52.090;13.162;2023-01-15T03:39:16;99125.31;;;7.68;100.00
49835;BME280;35729;52.090;13.162;2023-01-15T03:41:50;99132.25;;;7.69;100.00
49835;BME280;35729;52.090;13.162;2023-01-15T03:44:32;99128.78;;;7.68;100.00
49835;BME280;35729;52.090;13.162;2023-01-15T03:47:11;99130.47;;;7.69;100.00
49835;BME280;35729;52.090;13.162;2023-01-15T03:49:49;99141.78;;;7.70;100.00
49835;BME280;35729;52.090;13.162;2023-01-15T03:52:26;99154.84;;;7.70;100.00
49835;BME280;35729;52.090;13.162;2023-01-15T03:55:07;99156.66;;;7.68;100.00
49835;BME280;35729;52.090;13.162;2023-01-15T03:57:40;99143.59;;;7.68;100.00
49835;BME280;35729;52.090;13.162;2023-01-15T04:00:14;99154.94;;;7.66;100.00
49835;BME280;35729;52.090;13.162;2023-01-15T04:02:46;99171.50;;;7.65;100.00
49835;BME280;35729;52.090;13.162;2023-01-15T04:05:16;99163.66;;;7.65;100.00
49835;BME280;35729;52.090;13.162;2023-01-15T04:07:47;99161.97;;;7.64;100.00
49835;BME280;35729;52.090;13.162;2023-01-15T04:10:17;99161.13;;;7.64;100.00
49835;BME280;35729;52.090;13.162;2023-01-15T04:12:45;99177.69;;;7.63;100.00
49835;BME280;35729;52.090;13.162;2023-01-15T04:15:17;99176.84;;;7.62;100.00
49835;BME280;35729;52.090;13.162;2023-01-15T04:17:46;99182.97;;;7.61;100.00
49835;BME280;35729;52.090;13.162;2023-01-15T04:20:15;99175.97;;;7.62;100.00
49835;BME280;35729;52.090;13.162;2023-01-15T04:22:44;99180.34;;;7.61;100.00
49835;BME280;35729;52.090;13.162;2023-01-15T04:25:12;99176.84;;;7.62;100.00
49835;BME280;35729;52.090;13.162;2023-01-15T04:27:40;99186.38;;;7.63;100.00
49835;BME280;35729;52.090;13.162;2023-01-15T04:30:10;99236.00;;;7.62;100.00
49835;BME280;35729;52.090;13.162;2023-01-15T04:32:47;99250.63;;;7.41;100.00
49835;BME280;35729;52.090;13.162;2023-01-15T04:35:16;99254.09;;;7.14;100.00
49835;BME280;35729;52.090;13.162;2023-01-15T04:37:44;99253.34;;;6.81;99.85
49835;BME280;35729;52.090;13.162;2023-01-15T04:40:13;99270.03;;;6.45;98.74
49835;BME280;35729;52.090;13.162;2023-01-15T04:43:02;99283.97;;;6.11;97.76
49835;BME280;35729;52.090;13.162;2023-01-15T04:45:43;99279.25;;;5.91;99.61
49835;BME280;35729;52.090;13.162;2023-01-15T04:48:14;99267.63;;;5.71;97.82
49835;BME280;35729;52.090;13.162;2023-01-15T04:50:43;99272.34;;;5.55;98.88
49835;BME280;35729;52.090;13.162;2023-01-15T04:53:11;99308.28;;;5.41;98.68
49835;BME280;35729;52.090;13.162;2023-01-15T04:55:40;99299.00;;;5.29;99.05
49835;BME280;35729;52.090;13.162;2023-01-15T04:58:08;99305.34;;;5.17;99.46
49835;BME280;35729;52.090;13.162;2023-01-15T05:00:37;99303.72;;;5.12;99.56
49835;BME280;35729;52.090;13.162;2023-01-15T05:03:05;99309.97;;;5.04;100.00
49835;BME280;35729;52.090;13.162;2023-01-15T05:05:36;99303.97;;;5.01;100.00
49835;BME280;35729;52.090;13.162;2023-01-15T05:08:05;99311.91;;;4.95;99.35
49835;BME280;35729;52.090;13.162;2023-01-15T05:10:33;99312.09;;;4.85;97.32
49835;BME280;35729;52.090;13.162;2023-01-15T05:13:01;99321.75;;;4.79;97.55
49835;BME280;35729;52.090;13.162;2023-01-15T05:15:30;99325.41;;;4.71;97.34
49835;BME280;35729;52.090;13.162;2023-01-15T05:17:58;99322.03;;;4.66;97.85
49835;BME280;35729;52.090;13.162;2023-01-15T05:20:27;99333.34;;;4.62;96.53
49835;BME280;35729;52.090;13.162;2023-01-15T05:22:58;99339.53;;;4.56;97.14
49835;BME280;35729;52.090;13.162;2023-01-15T05:25:26;99331.81;;;4.52;97.88
49835;BME280;35729;52.090;13.162;2023-01-15T05:27:55;99335.31;;;4.51;99.41
49835;BME280;35729;52.090;13.162;2023-01-15T05:30:23;99345.69;;;4.51;100.00
49835;BME280;35729;52.090;13.162;2023-01-15T05:32:52;99345.72;;;4.49;100.00
49835;BME280;35729;52.090;13.162;2023-01-15T05:35:20;99337.09;;;4.49;100.00
49835;BME280;35729;52.090;13.162;2023-01-15T05:37:49;99337.94;;;4.49;100.00
49835;BME280;35729;52.090;13.162;2023-01-15T05:40:20;99327.59;;;4.48;100.00
49835;BME280;35729;52.090;13.162;2023-01-15T05:42:48;99344.88;;;4.47;100.00
49835;BME280;35729;52.090;13.162;2023-01-15T05:45:17;99344.09;;;4.45;100.00
49835;BME280;35729;52.090;13.162;2023-01-15T05:47:45;99339.72;;;4.46;100.00
49835;BME280;35729;52.090;13.162;2023-01-15T05:50:14;99331.94;;;4.46;100.00
49835;BME280;35729;52.090;13.162;2023-01-15T05:52:42;99331.94;;;4.46;100.00
49835;BME280;35729;52.090;13.162;2023-01-15T05:55:10;99328.47;;;4.47;100.00
49835;BME280;35729;52.090;13.162;2023-01-15T05:57:41;99314.59;;;4.48;100.00
49835;BME280;35729;52.090;13.162;2023-01-15T06:00:11;99320.63;;;4.48;100.00
49835;BME280;35729;52.090;13.162;2023-01-15T06:02:40;99333.53;;;4.53;100.00
49835;BME280;35729;52.090;13.162;2023-01-15T06:05:09;99331.78;;;4.53;100.00
49835;BME280;35729;52.090;13.162;2023-01-15T06:07:38;99330.91;;;4.54;100.00
49835;BME280;35729;52.090;13.162;2023-01-15T06:10:08;99331.78;;;4.55;100.00
49835;BME280;35729;52.090;13.162;2023-01-15T06:12:36;99333.47;;;4.56;100.00
49835;BME280;35729;52.090;13.162;2023-01-15T06:15:09;99334.34;;;4.56;100.00
49835;BME280;35729;52.090;13.162;2023-01-15T06:17:38;99342.09;;;4.58;100.00
49835;BME280;35729;52.090;13.162;2023-01-15T06:20:08;99351.66;;;4.57;100.00
49835;BME280;35729;52.090;13.162;2023-01-15T06:22:37;99354.25;;;4.57;100.00
49835;BME280;35729;52.090;13.162;2023-01-15T06:25:06;99339.50;;;4.58;100.00
49835;BME280;35729;52.090;13.162;2023-01-15T06:27:35;99344.69;;;4.58;100.00
49835;BME280;35729;52.090;13.162;2023-01-15T06:30:07;99345.53;;;4.59;100.00
49835;BME280;35729;52.090;13.162;2023-01-15T06:32:36;99341.22;;;4.59;100.00
49835;BME280;35729;52.090;13.162;2023-01-15T06:35:05;99341.25;;;4.57;100.00
49835;BME280;35729;52.090;13.162;2023-01-15T06:37:35;99327.34;;;4.60;100.00
49835;BME280;35729;52.090;13.162;2023-01-15T06:40:04;99340.34;;;4.60;100.00
49835;BME280;35729;52.090;13.162;2023-01-15T06:42:33;99340.34;;;4.60;100.00
49835;BME280;35729;52.090;13.162;2023-01-15T06:45:17;99326.50;;;4.58;100.00
49835;BME280;35729;52.090;13.162;2023-01-15T06:47:58;99326.47;;;4.60;100.00
49835;BME280;35729;52.090;13.162;2023-01-15T06:50:26;99329.94;;;4.59;100.00
49835;BME280;35729;52.090;13.162;2023-01-15T06:52:55;99332.56;;;4.59;100.00
49835;BME280;35729;52.090;13.162;2023-01-15T06:55:23;99336.06;;;4.57;100.00
49835;BME280;35729;52.090;13.162;2023-01-15T06:57:52;99341.25;;;4.57;100.00
49835;BME280;35729;52.090;13.162;2023-01-15T07:00:23;99340.38;;;4.57;100.00
49835;BME280;35729;52.090;13.162;2023-01-15T07:02:51;99348.22;;;4.55;100.00
49835;BME280;35729;52.090;13.162;2023-01-15T07:05:20;99355.16;;;4.53;100.00
49835;BME280;35729;52.090;13.162;2023-01-15T07:07:48;99362.16;;;4.51;100.00
49835;BME280;35729;52.090;13.162;2023-01-15T07:10:17;99369.94;;;4.50;100.00
49835;BME280;35729;52.090;13.162;2023-01-15T07:12:46;99379.47;;;4.51;100.00
49835;BME280;35729;52.090;13.162;2023-01-15T07:15:14;99368.25;;;4.49;100.00
49835;BME280;35729;52.090;13.162;2023-01-15T07:17:45;99362.19;;;4.48;100.00
49835;BME280;35729;52.090;13.162;2023-01-15T07:20:14;99369.94;;;4.50;100.00
49835;BME280;35729;52.090;13.162;2023-01-15T07:22:47;99360.47;;;4.49;100.00
49835;BME280;35729;52.090;13.162;2023-01-15T07:25:16;99356.97;;;4.50;100.00
49835;BME280;35729;52.090;13.162;2023-01-15T07:27:45;99345.69;;;4.51;100.00
49835;BME280;35729;52.090;13.162;2023-01-15T07:30:14;99348.31;;;4.49;100.00
49835;BME280;35729;52.090;13.162;2023-01-15T07:32:45;99355.28;;;4.49;100.00
49835;BME280;35729;52.090;13.162;2023-01-15T07:35:14;99339.69;;;4.47;100.00
49835;BME280;35729;52.090;13.162;2023-01-15T07:37:42;99348.38;;;4.48;100.00
49835;BME280;35729;52.090;13.162;2023-01-15T07:40:17;99342.34;;;4.46;100.00
49835;BME280;35729;52.090;13.162;2023-01-15T07:42:46;99345.81;;;4.45;100.00
49835;BME280;35729;52.090;13.162;2023-01-15T07:45:26;99357.09;;;4.44;100.00
49835;BME280;35729;52.090;13.162;2023-01-15T07:48:10;99364.03;;;4.43;100.00
49835;BME280;35729;52.090;13.162;2023-01-15T07:50:51;99381.34;;;4.43;100.00
49835;BME280;35729;52.090;13.162;2023-01-15T07:53:26;99387.44;;;4.42;100.00
49835;BME280;35729;52.090;13.162;2023-01-15T07:55:54;99380.53;;;4.40;100.00
49835;BME280;35729;52.090;13.162;2023-01-15T07:58:23;99388.31;;;4.40;100.00
49835;BME280;35729;52.090;13.162;2023-01-15T08:00:58;99375.31;;;4.40;100.00
49835;BME280;35729;52.090;13.162;2023-01-15T08:03:29;99365.81;;;4.39;100.00
49835;BME280;35729;52.090;13.162;2023-01-15T08:05:57;99357.97;;;4.43;100.00
49835;BME280;35729;52.090;13.162;2023-01-15T08:08:26;99363.19;;;4.43;100.00
49835;BME280;35729;52.090;13.162;2023-01-15T08:10:54;99359.69;;;4.44;100.00
49835;BME280;35729;52.090;13.162;2023-01-15T08:13:35;99369.22;;;4.43;100.00
49835;BME280;35729;52.090;13.162;2023-01-15T08:16:16;99353.59;;;4.45;100.00
49835;BME280;35729;52.090;13.162;2023-01-15T08:18:47;99346.72;;;4.44;100.00
49835;BME280;35729;52.090;13.162;2023-01-15T08:21:16;99354.47;;;4.45;100.00
49835;BME280;35729;52.090;13.162;2023-01-15T08:23:45;99369.19;;;4.45;100.00
49835;BME280;35729;52.090;13.162;2023-01-15T08:26:15;99373.47;;;4.49;100.00
49835;BME280;35729;52.090;13.162;2023-01-15T08:28:43;99373.47;;;4.49;100.00
49835;BME280;35729;52.090;13.162;2023-01-15T08:31:12;99375.16;;;4.50;100.00
49835;BME280;35729;52.090;13.162;2023-01-15T08:33:40;99374.22;;;4.52;100.00
49835;BME280;35729;52.090;13.162;2023-01-15T08:36:11;99381.13;;;4.55;100.00
49835;BME280;35729;52.090;13.162;2023-01-15T08:38:41;99377.72;;;4.51;100.00
49835;BME280;35729;52.090;13.162;2023-01-15T08:41:09;99389.75;;;4.57;100.00
49835;BME280;35729;52.090;13.162;2023-01-15T08:43:38;99379.31;;;4.59;100.00
49835;BME280;35729;52.090;13.162;2023-01-15T08:46:07;99384.50;;;4.60;100.00
49835;BME280;35729;52.090;13.162;2023-01-15T08:48:36;99389.66;;;4.62;100.00
49835;BME280;35729;52.090;13.162;2023-01-15T08:51:06;99385.31;;;4.62;100.00
49835;BME280;35729;52.090;13.162;2023-01-15T08:53:38;99392.22;;;4.63;99.63
49835;BME280;35729;52.090;13.162;2023-01-15T08:56:11;99401.78;;;4.63;100.00
49835;BME280;35729;52.090;13.162;2023-01-15T08:58:39;99404.28;;;4.66;100.00
49835;BME280;35729;52.090;13.162;2023-01-15T09:01:10;99407.75;;;4.66;99.81
49835;BME280;35729;52.090;13.162;2023-01-15T09:03:40;99410.38;;;4.66;98.53
49835;BME280;35729;52.090;13.162;2023-01-15T09:06:09;99418.97;;;4.68;99.65
49835;BME280;35729;52.090;13.162;2023-01-15T09:08:40;99419.00;;;4.67;98.39
49835;BME280;35729;52.090;13.162;2023-01-15T09:11:09;99411.25;;;4.65;99.26
49835;BME280;35729;52.090;13.162;2023-01-15T09:13:38;99409.47;;;4.67;99.96
49835;BME280;35729;52.090;13.162;2023-01-15T09:16:07;99414.63;;;4.70;100.00
49835;BME280;35729;52.090;13.162;2023-01-15T09:18:36;99412.81;;;4.72;100.00
49835;BME280;35729;52.090;13.162;2023-01-15T09:21:04;99422.28;;;4.77;100.00
49835;BME280;35729;52.090;13.162;2023-01-15T09:23:33;99417.91;;;4.79;100.00
49835;BME280;35729;52.090;13.162;2023-01-15T09:26:05;99422.19;;;4.81;100.00
49835;BME280;35729;52.090;13.162;2023-01-15T09:28:34;99428.19;;;4.85;100.00
49835;BME280;35729;52.090;13.162;2023-01-15T09:31:03;99423.81;;;4.87;100.00
49835;BME280;35729;52.090;13.162;2023-01-15T09:33:31;99428.13;;;4.88;100.00
49835;BME280;35729;52.090;13.162;2023-01-15T09:36:00;99428.94;;;4.92;99.80
49835;BME280;35729;52.090;13.162;2023-01-15T09:38:28;99433.22;;;4.93;99.19
49835;BME280;35729;52.090;13.162;2023-01-15T09:41:06;99438.41;;;4.94;99.17
49835;BME280;35729;52.090;13.162;2023-01-15T09:44:01;99437.50;;;4.95;99.21
49835;BME280;35729;52.090;13.162;2023-01-15T09:46:39;99433.16;;;4.97;99.02
49835;BME280;35729;52.090;13.162;2023-01-15T09:49:22;99430.47;;;5.00;98.58
49835;BME280;35729;52.090;13.162;2023-01-15T09:52:02;99432.16;;;5.03;98.62
49835;BME280;35729;52.090;13.162;2023-01-15T09:54:44;99430.34;;;5.06;98.96
49835;BME280;35729;52.090;13.162;2023-01-15T09:57:19;99437.22;;;5.11;98.25
49835;BME280;35729;52.090;13.162;2023-01-15T09:59:51;99441.50;;;5.13;97.18
49835;BME280;35729;52.090;13.162;2023-01-15T10:02:29;99448.34;;;5.17;98.18
49835;BME280;35729;52.090;13.162;2023-01-15T10:05:00;99445.66;;;5.20;96.02
49835;BME280;35729;52.090;13.162;2023-01-15T10:07:33;99444.75;;;5.23;97.01
49835;BME280;35729;52.090;13.162;2023-01-15T10:10:10;99444.69;;;5.26;97.15
49835;BME280;35729;52.090;13.162;2023-01-15T10:12:44;99445.53;;;5.28;96.21
49835;BME280;35729;52.090;13.162;2023-01-15T10:15:24;99449.78;;;5.32;95.59
49835;BME280;35729;52.090;13.162;2023-01-15T10:17:56;99441.09;;;5.33;95.11
49835;BME280;35729;52.090;13.162;2023-01-15T10:20:43;99442.72;;;5.37;95.97
49835;BME280;35729;52.090;13.162;2023-01-15T10:23:25;99436.66;;;5.38;95.04
49835;BME280;35729;52.090;13.162;2023-01-15T10:26:02;99431.38;;;5.42;92.82
49835;BME280;35729;52.090;13.162;2023-01-15T10:28:46;99447.81;;;5.44;93.73
49835;BME280;35729;52.090;13.162;2023-01-15T10:31:19;99442.56;;;5.45;91.58
49835;BME280;35729;52.090;13.162;2023-01-15T10:34:03;99443.41;;;5.47;91.37
49835;BME280;35729;52.090;13.162;2023-01-15T10:36:37;99450.28;;;5.50;92.92
49835;BME280;35729;52.090;13.162;2023-01-15T10:39:13;99438.16;;;5.49;89.92
49835;BME280;35729;52.090;13.162;2023-01-15T10:41:51;99434.63;;;5.51;90.72
49835;BME280;35729;52.090;13.162;2023-01-15T10:44:31;99430.28;;;5.52;89.06
49835;BME280;35729;52.090;13.162;2023-01-15T10:47:11;99423.34;;;5.51;90.41
49835;BME280;35729;52.090;13.162;2023-01-15T10:49:41;99435.47;;;5.52;89.09
49835;BME280;35729;52.090;13.162;2023-01-15T10:52:21;99438.94;;;5.52;90.81
49835;BME280;35729;52.090;13.162;2023-01-15T10:55:03;99439.78;;;5.53;86.46
49835;BME280;35729;52.090;13.162;2023-01-15T10:57:40;99438.91;;;5.54;87.22
49835;BME280;35729;52.090;13.162;2023-01-15T11:00:16;99450.16;;;5.54;87.27
49835;BME280;35729;52.090;13.162;2023-01-15T11:02:48;99459.72;;;5.54;86.37
49835;BME280;35729;52.090;13.162;2023-01-15T11:05:19;99451.03;;;5.55;84.14
49835;BME280;35729;52.090;13.162;2023-01-15T11:07:50;99456.13;;;5.60;86.89
49835;BME280;35729;52.090;13.162;2023-01-15T11:10:20;99449.19;;;5.60;84.11
49835;BME280;35729;52.090;13.162;2023-01-15T11:12:51;99447.38;;;5.62;84.90
49835;BME280;35729;52.090;13.162;2023-01-15T11:15:35;99448.22;;;5.64;83.33
49835;BME280;35729;52.090;13.162;2023-01-15T11:18:21;99450.72;;;5.69;85.55
49835;BME280;35729;52.090;13.162;2023-01-15T11:21:08;99452.44;;;5.68;83.36
49835;BME280;35729;52.090;13.162;2023-01-15T11:23:38;99451.53;;;5.73;84.20
49835;BME280;35729;52.090;13.162;2023-01-15T11:26:07;99447.13;;;5.75;84.58
49835;BME280;35729;52.090;13.162;2023-01-15T11:28:38;99450.56;;;5.77;86.39
49835;BME280;35729;52.090;13.162;2023-01-15T11:31:11;99456.59;;;5.79;84.93
49835;BME280;35729;52.090;13.162;2023-01-15T11:33:43;99456.50;;;5.82;82.58
49835;BME280;35729;52.090;13.162;2023-01-15T11:36:22;99450.41;;;5.83;83.86
49835;BME280;35729;52.090;13.162;2023-01-15T11:38:51;99457.28;;;5.85;86.43
49835;BME280;35729;52.090;13.162;2023-01-15T11:41:22;99449.44;;;5.87;83.53
49835;BME280;35729;52.090;13.162;2023-01-15T11:44:12;99448.50;;;5.90;85.64
49835;BME280;35729;52.090;13.162;2023-01-15T11:46:56;99443.34;;;5.88;85.06
49835;BME280;35729;52.090;13.162;2023-01-15T11:49:49;99452.88;;;5.89;81.28
49835;BME280;35729;52.090;13.162;2023-01-15T11:52:30;99439.88;;;5.89;85.16
49835;BME280;35729;52.090;13.162;2023-01-15T11:54:58;99442.41;;;5.91;85.83
49835;BME280;35729;52.090;13.162;2023-01-15T11:57:31;99434.66;;;5.89;81.84
49835;BME280;35729;52.090;13.162;2023-01-15T12:00:00;99426.00;;;5.87;85.98
49835;BME280;35729;52.090;13.162;2023-01-15T12:02:34;99439.78;;;5.92;85.64
49835;BME280;35729;52.090;13.162;2023-01-15T12:05:14;99437.16;;;5.92;84.68
49835;BME280;35729;52.090;13.162;2023-01-15T12:07:43;99443.25;;;5.91;83.40
49835;BME280;35729;52.090;13.162;2023-01-15T12:10:17;99436.34;;;5.90;85.17
49835;BME280;35729;52.090;13.162;2023-01-15T12:13:13;99426.72;;;5.94;81.91
49835;BME280;35729;52.090;13.162;2023-01-15T12:15:51;99427.53;;;5.96;84.45
49835;BME280;35729;52.090;13.162;2023-01-15T12:18:51;99444.00;;;5.96;79.67
49835;BME280;35729;52.090;13.162;2023-01-15T12:21:52;99440.50;;;5.99;82.74
49835;BME280;35729;52.090;13.162;2023-01-15T12:24:39;99430.94;;;6.01;80.29
49835;BME280;35729;52.090;13.162;2023-01-15T12:27:20;99444.78;;;6.01;79.44
49835;BME280;35729;52.090;13.162;2023-01-15T12:30:00;99435.19;;;6.03;83.17
49835;BME280;35729;52.090;13.162;2023-01-15T12:32:32;99434.31;;;6.05;83.88
49835;BME280;35729;52.090;13.162;2023-01-15T12:35:10;99440.38;;;6.05;79.79
49835;BME280;35729;52.090;13.162;2023-01-15T12:37:46;99438.63;;;6.06;81.81
49835;BME280;35729;52.090;13.162;2023-01-15T12:40:18;99446.44;;;6.06;75.97
49835;BME280;35729;52.090;13.162;2023-01-15T12:42:52;99442.97;;;6.07;78.53
49835;BME280;35729;52.090;13.162;2023-01-15T12:45:37;99436.81;;;6.09;81.40
49835;BME280;35729;52.090;13.162;2023-01-15T12:48:13;99446.44;;;6.06;74.29
49835;BME280;35729;52.090;13.162;2023-01-15T12:50:48;99435.94;;;6.09;80.46
49835;BME280;35729;52.090;13.162;2023-01-15T12:53:20;99437.72;;;6.08;78.09
49835;BME280;35729;52.090;13.162;2023-01-15T12:55:53;99432.53;;;6.07;78.50
49835;BME280;35729;52.090;13.162;2023-01-15T12:58:32;99434.22;;;6.08;76.05
49835;BME280;35729;52.090;13.162;2023-01-15T13:01:04;99435.94;;;6.09;80.42
49835;BME280;35729;52.090;13.162;2023-01-15T13:03:48;99416.81;;;6.10;79.62
49835;BME280;35729;52.090;13.162;2023-01-15T13:06:28;99409.91;;;6.09;76.85
49835;BME280;35729;52.090;13.162;2023-01-15T13:09:02;99418.53;;;6.11;78.63
49835;BME280;35729;52.090;13.162;2023-01-15T13:11:32;99416.75;;;6.13;78.97
49835;BME280;35729;52.090;13.162;2023-01-15T13:14:00;99411.56;;;6.11;74.21
49835;BME280;35729;52.090;13.162;2023-01-15T13:16:39;99424.72;;;6.07;70.85
49835;BME280;35729;52.090;13.162;2023-01-15T13:19:28;99436.91;;;6.05;71.87
49835;BME280;35729;52.090;13.162;2023-01-15T13:22:05;99436.97;;;6.01;72.03
49835;BME280;35729;52.090;13.162;2023-01-15T13:24:53;99436.13;;;6.01;71.73